createdAt,value
2022-10-19T00:02:08.570Z,21.12
2022-10-19T00:04:35.028Z,21.13
2022-10-19T00:07:01.467Z,21.14
2022-10-19T00:09:29.163Z,21.14
2022-10-19T00:11:56.222Z,21.14
2022-10-19T00:14:23.638Z,21.14
2022-10-19T00:16:50.908Z,21.11
2022-10-19T00:19:19.483Z,21.12
2022-10-19T00:21:46.059Z,21.09
2022-10-19T00:24:12.635Z,21.07
2022-10-19T00:26:39.156Z,21.06
2022-10-19T00:29:06.083Z,21.08
2022-10-19T00:31:32.855Z,21.10
2022-10-19T00:33:59.809Z,21.09
2022-10-19T00:36:26.163Z,21.09
2022-10-19T00:38:53.338Z,21.10
2022-10-19T00:41:20.488Z,21.11
2022-10-19T00:43:51.211Z,21.10
2022-10-19T00:46:17.594Z,21.10
2022-10-19T00:48:44.108Z,21.11
2022-10-19T00:51:10.544Z,21.10
2022-10-19T00:53:37.085Z,21.10
2022-10-19T00:56:05.713Z,21.11
2022-10-19T00:58:32.843Z,21.07
2022-10-19T01:01:01.435Z,21.08
2022-10-19T01:03:28.006Z,21.10
2022-10-19T01:05:54.680Z,21.07
2022-10-19T01:08:21.164Z,21.10
2022-10-19T01:11:06.410Z,21.12
2022-10-19T01:13:32.804Z,21.10
2022-10-19T01:16:15.248Z,21.08
2022-10-19T01:18:45.888Z,21.09
2022-10-19T01:21:12.219Z,21.11
2022-10-19T01:24:17.987Z,21.12
2022-10-19T01:27:02.991Z,21.11
2022-10-19T01:29:35.358Z,21.11
2022-10-19T01:32:27.828Z,21.16
2022-10-19T01:35:10.119Z,21.09
2022-10-19T01:37:50.378Z,21.09
2022-10-19T01:40:25.879Z,21.10
2022-10-19T01:42:59.103Z,21.13
2022-10-19T01:45:28.611Z,21.15
2022-10-19T01:48:02.153Z,21.15
2022-10-19T01:50:28.593Z,21.14
2022-10-19T01:52:55.956Z,21.15
2022-10-19T01:55:24.428Z,21.12
2022-10-19T01:57:53.967Z,21.12
2022-10-19T02:00:21.894Z,21.12
2022-10-19T02:02:50.313Z,21.13
2022-10-19T02:05:19.480Z,21.10
2022-10-19T02:07:49.433Z,21.12
2022-10-19T02:10:16.073Z,21.15
2022-10-19T02:12:42.738Z,21.16
2022-10-19T02:15:11.118Z,21.17
2022-10-19T02:17:40.216Z,21.16
2022-10-19T02:20:06.955Z,21.12
2022-10-19T02:22:33.557Z,21.11
2022-10-19T02:25:00.263Z,21.08
2022-10-19T02:27:26.785Z,21.09
2022-10-19T02:29:54.639Z,21.03
2022-10-19T02:32:21.122Z,21.04
2022-10-19T02:34:47.590Z,21.02
2022-10-19T02:37:14.071Z,21.08
2022-10-19T02:39:40.498Z,21.07
2022-10-19T02:42:11.834Z,21.07
2022-10-19T02:44:38.150Z,21.10
2022-10-19T02:47:11.402Z,21.11
2022-10-19T02:49:38.738Z,21.08
2022-10-19T02:52:07.030Z,21.07
2022-10-19T02:54:33.518Z,21.04
2022-10-19T02:56:59.906Z,21.03
2022-10-19T02:59:26.444Z,21.01
2022-10-19T03:01:52.882Z,21.06
2022-10-19T03:04:19.231Z,21.07
2022-10-19T03:06:45.985Z,21.09
2022-10-19T03:09:12.364Z,21.11
2022-10-19T03:11:38.764Z,21.10
2022-10-19T03:14:05.128Z,21.12
2022-10-19T03:16:31.457Z,21.11
2022-10-19T03:18:57.792Z,21.12
2022-10-19T03:21:24.141Z,21.14
2022-10-19T03:23:50.563Z,21.14
2022-10-19T03:26:17.361Z,21.18
2022-10-19T03:28:43.750Z,21.19
2022-10-19T03:31:10.140Z,21.19
2022-10-19T03:33:36.513Z,21.18
2022-10-19T03:36:12.794Z,21.19
2022-10-19T03:38:39.142Z,21.16
2022-10-19T03:41:06.410Z,21.12
2022-10-19T03:43:32.782Z,21.12
2022-10-19T03:45:59.105Z,21.14
2022-10-19T03:48:25.502Z,21.18
2022-10-19T03:50:59.619Z,21.19
2022-10-19T03:53:25.975Z,21.17
2022-10-19T03:55:52.314Z,21.16
2022-10-19T03:58:18.719Z,21.19
2022-10-19T04:00:45.125Z,21.16
2022-10-19T04:03:11.483Z,21.12
2022-10-19T04:05:37.805Z,21.12
2022-10-19T04:08:04.294Z,21.11
2022-10-19T04:10:31.090Z,21.12
2022-10-19T04:12:57.464Z,21.13
2022-10-19T04:15:23.816Z,21.18
2022-10-19T04:17:50.149Z,21.18
2022-10-19T04:20:16.545Z,21.18
2022-10-19T04:22:42.880Z,21.18
2022-10-19T04:25:10.302Z,21.18
2022-10-19T04:27:36.853Z,21.16
2022-10-19T04:30:03.978Z,21.16
2022-10-19T04:32:30.326Z,21.18
2022-10-19T04:34:56.654Z,21.21
2022-10-19T04:37:23.037Z,21.23
2022-10-19T04:39:49.384Z,21.23
2022-10-19T04:42:15.825Z,21.23
2022-10-19T04:44:42.191Z,21.24
2022-10-19T04:47:09.096Z,21.24
2022-10-19T04:49:35.465Z,21.24
2022-10-19T04:52:01.862Z,21.21
2022-10-19T04:54:28.350Z,21.21
2022-10-19T04:56:54.713Z,21.23
2022-10-19T04:59:21.089Z,21.23
2022-10-19T05:01:47.595Z,21.25
2022-10-19T05:04:13.996Z,21.26
2022-10-19T05:06:40.376Z,21.25
2022-10-19T05:09:06.745Z,21.24
2022-10-19T05:11:33.078Z,21.24
2022-10-19T05:13:59.480Z,21.23
2022-10-19T05:16:26.031Z,21.21
2022-10-19T05:18:56.010Z,21.21
2022-10-19T05:21:22.782Z,21.20
2022-10-19T05:23:51.652Z,21.20
2022-10-19T05:26:19.136Z,21.25
2022-10-19T05:28:49.230Z,21.23
2022-10-19T05:31:16.749Z,21.23
2022-10-19T05:33:43.295Z,21.24
2022-10-19T05:36:19.621Z,21.23
2022-10-19T05:38:47.275Z,21.26
2022-10-19T05:41:13.788Z,21.30
2022-10-19T05:43:41.399Z,21.32
2022-10-19T05:46:09.466Z,21.35
2022-10-19T05:48:35.921Z,21.39
2022-10-19T05:51:03.085Z,21.39
2022-10-19T05:53:29.744Z,21.43
2022-10-19T05:55:56.198Z,21.44
2022-10-19T05:58:23.130Z,21.44
2022-10-19T06:00:56.831Z,21.46
2022-10-19T06:03:23.956Z,21.44
2022-10-19T06:05:50.402Z,21.44
2022-10-19T06:08:17.588Z,21.39
2022-10-19T06:10:44.406Z,21.38
2022-10-19T06:13:10.860Z,21.37
2022-10-19T06:15:40.009Z,21.35
2022-10-19T06:18:10.525Z,21.36
2022-10-19T06:20:38.055Z,21.35
2022-10-19T06:23:05.586Z,21.39
2022-10-19T06:25:32.545Z,21.43
2022-10-19T06:27:59.267Z,21.43
2022-10-19T06:30:25.860Z,21.47
2022-10-19T06:32:52.620Z,21.45
2022-10-19T06:35:19.100Z,21.42
2022-10-19T06:37:45.484Z,21.44
2022-10-19T06:40:12.245Z,21.45
2022-10-19T06:42:41.293Z,21.44
2022-10-19T06:45:10.962Z,21.46
2022-10-19T06:47:37.782Z,21.44
2022-10-19T06:50:05.464Z,21.44
2022-10-19T06:52:32.527Z,21.44
2022-10-19T06:54:59.361Z,21.41
2022-10-19T06:57:25.830Z,21.36
2022-10-19T06:59:53.053Z,21.29
2022-10-19T07:02:20.303Z,21.27
2022-10-19T07:04:46.776Z,21.22
2022-10-19T07:07:13.226Z,21.21
2022-10-19T07:09:39.635Z,21.16
2022-10-19T07:12:06.124Z,21.14
2022-10-19T07:14:38.571Z,21.12
2022-10-19T07:17:05.825Z,21.12
2022-10-19T07:19:34.948Z,21.12
2022-10-19T07:22:01.438Z,21.13
2022-10-19T07:24:28.888Z,21.11
2022-10-19T07:26:55.653Z,21.11
2022-10-19T07:29:22.127Z,21.12
2022-10-19T07:31:48.588Z,21.12
2022-10-19T07:34:15.143Z,21.12
2022-10-19T07:36:45.105Z,21.13
2022-10-19T07:39:12.630Z,21.12
2022-10-19T07:41:39.191Z,21.12
2022-10-19T07:44:05.993Z,21.11
2022-10-19T07:46:33.798Z,21.13
2022-10-19T07:49:00.674Z,21.12
2022-10-19T07:51:30.025Z,21.13
2022-10-19T07:53:57.455Z,21.16
2022-10-19T07:56:24.891Z,21.15
2022-10-19T07:58:52.517Z,21.14
2022-10-19T08:01:23.586Z,21.14
2022-10-19T08:06:38.605Z,21.18
2022-10-19T08:09:05.317Z,21.18
2022-10-19T08:11:33.710Z,21.17
2022-10-19T08:14:00.172Z,21.18
2022-10-19T08:16:28.386Z,21.18
2022-10-19T08:18:58.344Z,21.19
2022-10-19T08:21:25.967Z,21.19
2022-10-19T08:23:52.473Z,21.19
2022-10-19T08:26:19.097Z,21.19
2022-10-19T08:28:45.844Z,21.20
2022-10-19T08:31:13.351Z,21.21
2022-10-19T08:33:39.835Z,21.22
2022-10-19T08:36:09.895Z,21.22
2022-10-19T08:38:36.813Z,21.23
2022-10-19T08:41:10.243Z,21.23
2022-10-19T08:43:38.853Z,21.23
2022-10-19T08:46:19.787Z,21.25
2022-10-19T08:48:46.413Z,21.24
2022-10-19T08:51:13.099Z,21.24
2022-10-19T08:53:43.890Z,21.23
2022-10-19T08:56:45.756Z,21.25
2022-10-19T08:59:08.844Z,21.24
2022-10-19T09:01:41.422Z,21.25
2022-10-19T09:04:13.059Z,21.24
2022-10-19T09:06:39.498Z,21.24
2022-10-19T09:09:06.306Z,21.24
2022-10-19T09:11:35.383Z,21.23
2022-10-19T09:14:22.123Z,21.25
2022-10-19T09:16:48.802Z,21.26
2022-10-19T09:19:24.353Z,21.26
2022-10-19T09:21:54.818Z,21.27
2022-10-19T09:24:27.786Z,21.29
2022-10-19T09:26:55.553Z,21.29
2022-10-19T09:29:26.434Z,21.29
2022-10-19T09:34:34.914Z,21.32
2022-10-19T09:37:01.461Z,21.31
2022-10-19T09:39:29.645Z,21.30
2022-10-19T09:41:56.336Z,21.31
2022-10-19T09:44:23.264Z,21.32
2022-10-19T09:46:52.309Z,21.34
2022-10-19T09:49:37.602Z,21.34
2022-10-19T09:52:04.197Z,21.34
2022-10-19T09:54:35.714Z,21.32
2022-10-19T09:57:02.377Z,21.34
2022-10-19T09:59:30.495Z,21.32
2022-10-19T10:02:03.975Z,21.34
2022-10-19T10:04:30.533Z,21.34
2022-10-19T10:06:57.953Z,21.35
2022-10-19T10:09:27.247Z,21.34
2022-10-19T10:14:21.738Z,21.35
2022-10-19T10:16:48.162Z,21.35
2022-10-19T10:19:16.465Z,21.35
2022-10-19T10:21:51.007Z,21.35
2022-10-19T10:24:18.935Z,21.35
2022-10-19T10:26:52.676Z,21.35
2022-10-19T10:29:25.472Z,21.35
2022-10-19T10:32:10.533Z,21.34
2022-10-19T10:34:50.942Z,21.33
2022-10-19T10:37:22.409Z,21.34
2022-10-19T10:39:53.670Z,21.35
2022-10-19T10:42:22.506Z,21.35
2022-10-19T10:44:51.165Z,21.35
2022-10-19T10:47:20.403Z,21.35
2022-10-19T10:49:54.389Z,21.35
2022-10-19T10:52:20.890Z,21.32
2022-10-19T10:55:06.335Z,21.34
2022-10-19T10:57:35.982Z,21.34
2022-10-19T11:00:08.123Z,21.35
2022-10-19T11:02:40.671Z,21.36
2022-10-19T11:05:17.188Z,21.36
2022-10-19T11:07:45.501Z,21.36
2022-10-19T11:10:26.606Z,21.37
2022-10-19T11:13:04.445Z,21.37
2022-10-19T11:15:35.019Z,21.38
2022-10-19T11:18:12.524Z,21.37
2022-10-19T11:20:42.613Z,21.37
2022-10-19T11:23:09.177Z,21.37
2022-10-19T11:25:49.346Z,21.37
2022-10-19T11:28:34.504Z,21.36
2022-10-19T11:31:19.284Z,21.37
2022-10-19T11:33:54.971Z,21.36
2022-10-19T11:36:35.307Z,21.37
2022-10-19T11:39:10.877Z,21.38
2022-10-19T11:41:43.358Z,21.38
2022-10-19T11:44:12.769Z,21.37
2022-10-19T11:46:45.686Z,21.36
2022-10-19T11:49:30.963Z,21.35
2022-10-19T11:52:06.406Z,21.36
2022-10-19T11:54:44.732Z,21.34
2022-10-19T11:57:21.207Z,21.36
2022-10-19T12:00:14.373Z,21.37
2022-10-19T12:03:06.372Z,21.37
2022-10-19T12:05:35.775Z,21.36
2022-10-19T12:08:14.313Z,21.38
2022-10-19T12:11:07.013Z,21.37
2022-10-19T12:13:48.152Z,21.37
2022-10-19T12:16:15.188Z,21.37
2022-10-19T12:18:49.387Z,21.36
2022-10-19T12:21:22.841Z,21.36
2022-10-19T12:23:50.322Z,21.36
2022-10-19T12:28:52.247Z,21.38
2022-10-19T12:31:19.072Z,21.37
2022-10-19T12:33:49.447Z,21.37
2022-10-19T12:36:26.836Z,21.38
2022-10-19T12:39:08.259Z,21.37
2022-10-19T12:41:40.802Z,21.37
2022-10-19T12:44:19.510Z,21.36
2022-10-19T12:46:53.006Z,21.37
2022-10-19T12:49:26.201Z,21.36
2022-10-19T12:51:54.020Z,21.36
2022-10-19T12:54:34.163Z,21.36
2022-10-19T12:57:01.844Z,21.36
2022-10-19T12:59:35.227Z,21.36
2022-10-19T13:02:04.500Z,21.36
2022-10-19T13:04:32.500Z,21.36
2022-10-19T13:07:08.065Z,21.36
2022-10-19T13:09:37.404Z,21.35
2022-10-19T13:12:19.726Z,21.36
2022-10-19T13:15:12.965Z,21.37
2022-10-19T13:17:50.585Z,21.37
2022-10-19T13:20:16.999Z,21.37
2022-10-19T13:22:46.291Z,21.37
2022-10-19T13:25:24.135Z,21.37
2022-10-19T13:27:51.453Z,21.37
2022-10-19T13:30:47.144Z,21.37
2022-10-19T13:33:22.710Z,21.37
2022-10-19T13:35:49.220Z,21.36
2022-10-19T13:38:15.568Z,21.36
2022-10-19T13:40:51.134Z,21.34
2022-10-19T13:43:19.286Z,21.36
2022-10-19T13:46:04.396Z,21.35
2022-10-19T13:48:36.930Z,21.35
2022-10-19T13:51:10.414Z,21.35
2022-10-19T13:54:03.085Z,21.35
2022-10-19T13:56:29.461Z,21.33
2022-10-19T13:58:57.635Z,21.34
2022-10-19T14:01:40.359Z,21.32
2022-10-19T14:04:16.319Z,21.32
2022-10-19T14:06:42.808Z,21.32
2022-10-19T14:09:23.661Z,21.31
2022-10-19T14:11:51.734Z,21.31
2022-10-19T14:14:19.841Z,21.31
2022-10-19T14:17:03.181Z,21.30
2022-10-19T14:19:51.071Z,21.31
2022-10-19T14:22:25.663Z,21.30
2022-10-19T14:24:52.500Z,21.28
2022-10-19T14:27:23.153Z,21.28
2022-10-19T14:29:50.937Z,21.28
2022-10-19T14:32:18.755Z,21.28
2022-10-19T14:34:46.633Z,21.27
2022-10-19T14:37:16.201Z,21.27
2022-10-19T14:39:42.629Z,21.26
2022-10-19T14:42:10.258Z,21.27
2022-10-19T14:44:39.669Z,21.26
2022-10-19T14:47:17.291Z,21.25
2022-10-19T14:49:43.701Z,21.24
2022-10-19T14:52:13.095Z,21.25
2022-10-19T14:54:42.032Z,21.23
2022-10-19T14:57:34.990Z,21.23
2022-10-19T15:00:03.201Z,21.22
2022-10-19T15:02:32.140Z,21.21
2022-10-19T15:05:00.510Z,21.21
2022-10-19T15:07:33.543Z,21.22
2022-10-19T15:10:01.329Z,21.21
2022-10-19T15:12:36.259Z,21.20
2022-10-19T15:15:07.411Z,21.18
2022-10-19T15:17:51.161Z,21.18
2022-10-19T15:20:29.195Z,21.18
2022-10-19T15:22:56.585Z,21.16
2022-10-19T15:25:22.905Z,21.16
2022-10-19T15:27:50.904Z,21.16
2022-10-19T15:30:18.559Z,21.17
2022-10-19T15:32:47.884Z,21.16
2022-10-19T15:35:20.459Z,21.14
2022-10-19T15:37:48.470Z,21.13
2022-10-19T15:40:21.361Z,21.12
2022-10-19T15:42:49.012Z,21.11
2022-10-19T15:45:35.028Z,21.10
2022-10-19T15:48:13.115Z,21.09
2022-10-19T15:50:49.618Z,21.09
2022-10-19T15:53:16.294Z,21.08
2022-10-19T15:55:42.643Z,21.08
2022-10-19T15:58:09.848Z,21.07
2022-10-19T16:00:36.447Z,21.09
2022-10-19T16:03:02.793Z,21.07
2022-10-19T16:05:29.372Z,21.06
2022-10-19T16:07:55.981Z,21.06
2022-10-19T16:10:23.885Z,21.03
2022-10-19T16:12:50.262Z,21.02
2022-10-19T16:15:22.195Z,21.02
2022-10-19T16:17:58.769Z,21.00
2022-10-19T16:20:26.372Z,21.01
2022-10-19T16:22:52.779Z,20.99
2022-10-19T16:25:19.362Z,20.99
2022-10-19T16:27:46.037Z,20.97
2022-10-19T16:30:12.847Z,20.97
2022-10-19T16:35:12.090Z,20.98
2022-10-19T16:37:38.481Z,20.98
2022-10-19T16:40:05.307Z,20.98
2022-10-19T16:42:32.314Z,20.97
2022-10-19T16:44:58.949Z,20.96
2022-10-19T16:47:25.371Z,20.95
2022-10-19T16:49:57.604Z,20.95
2022-10-19T16:52:24.041Z,20.95
2022-10-19T16:54:52.762Z,20.94
2022-10-19T16:57:19.311Z,20.93
2022-10-19T16:59:45.755Z,20.93
2022-10-19T17:02:14.216Z,20.92
2022-10-19T17:04:40.670Z,20.91
2022-10-19T17:07:07.053Z,20.91
2022-10-19T17:09:42.127Z,20.90
2022-10-19T17:12:09.736Z,20.92
2022-10-19T17:14:36.595Z,20.89
2022-10-19T17:17:03.355Z,20.89
2022-10-19T17:19:29.981Z,20.88
2022-10-19T17:21:57.587Z,20.87
2022-10-19T17:24:24.203Z,20.89
2022-10-19T17:26:51.511Z,20.87
2022-10-19T17:29:18.429Z,20.88
2022-10-19T17:31:44.982Z,20.87
2022-10-19T17:34:11.398Z,20.87
2022-10-19T17:39:17.539Z,20.85
2022-10-19T17:41:44.917Z,20.85
2022-10-19T17:44:11.402Z,20.84
2022-10-19T17:46:37.872Z,20.84
2022-10-19T17:49:04.436Z,20.84
2022-10-19T17:51:32.339Z,20.84
2022-10-19T17:53:59.877Z,20.84
2022-10-19T17:56:26.611Z,20.84
2022-10-19T17:58:53.334Z,20.83
2022-10-19T18:01:20.905Z,20.83
2022-10-19T18:03:47.559Z,20.81
2022-10-19T18:06:18.530Z,20.81
2022-10-19T18:08:49.572Z,20.81
2022-10-19T18:11:18.116Z,20.79
2022-10-19T18:13:45.586Z,20.78
2022-10-19T18:16:13.462Z,20.78
2022-10-19T18:18:40.706Z,20.78
2022-10-19T18:21:10.256Z,20.78
2022-10-19T18:23:37.072Z,20.76
2022-10-19T18:26:12.140Z,20.76
2022-10-19T18:28:38.593Z,20.75
2022-10-19T18:31:07.960Z,20.74
2022-10-19T18:33:34.655Z,20.75
2022-10-19T18:36:01.174Z,20.74
2022-10-19T18:38:27.657Z,20.74
2022-10-19T18:40:54.200Z,20.73
2022-10-19T18:43:20.555Z,20.73
2022-10-19T18:45:57.601Z,20.72
2022-10-19T18:48:24.888Z,20.72
2022-10-19T18:50:51.557Z,20.71
2022-10-19T18:53:19.815Z,20.72
2022-10-19T18:55:46.312Z,20.70
2022-10-19T18:58:18.030Z,20.72
2022-10-19T19:00:47.602Z,20.69
2022-10-19T19:03:14.232Z,20.69
2022-10-19T19:05:40.576Z,20.70
2022-10-19T19:08:06.982Z,20.70
2022-10-19T19:10:33.327Z,20.70
2022-10-19T19:12:59.741Z,20.67
2022-10-19T19:15:26.084Z,20.67
2022-10-19T19:17:53.733Z,20.67
2022-10-19T19:20:20.188Z,20.67
2022-10-19T19:22:49.191Z,20.66
2022-10-19T19:25:17.919Z,20.66
2022-10-19T19:27:46.106Z,20.65
2022-10-19T19:30:12.575Z,20.64
2022-10-19T19:32:39.023Z,20.63
2022-10-19T19:35:05.595Z,20.62
2022-10-19T19:37:32.158Z,20.62
2022-10-19T19:40:00.817Z,20.62
2022-10-19T19:42:27.991Z,20.60
2022-10-19T19:45:00.190Z,20.61
2022-10-19T19:47:27.630Z,20.61
2022-10-19T19:49:54.005Z,20.60
2022-10-19T19:52:22.851Z,20.58
2022-10-19T19:54:49.287Z,20.58
2022-10-19T19:57:15.679Z,20.58
2022-10-19T19:59:42.055Z,20.57
2022-10-19T20:02:09.205Z,20.56
2022-10-19T20:04:35.661Z,20.57
2022-10-19T20:07:04.892Z,20.55
2022-10-19T20:09:43.048Z,20.54
2022-10-19T20:12:09.382Z,20.54
2022-10-19T20:14:41.718Z,20.53
2022-10-19T20:17:10.526Z,20.52
2022-10-19T20:19:37.063Z,20.51
2022-10-19T20:22:04.363Z,20.53
2022-10-19T20:24:32.024Z,20.51
2022-10-19T20:27:00.541Z,20.51
2022-10-19T20:29:26.930Z,20.49
2022-10-19T20:31:53.274Z,20.50
2022-10-19T20:34:23.849Z,20.50
2022-10-19T20:36:50.452Z,20.49
2022-10-19T20:39:16.835Z,20.48
2022-10-19T20:41:43.287Z,20.47
2022-10-19T20:44:09.755Z,20.44
2022-10-19T20:46:37.093Z,20.47
2022-10-19T20:49:03.800Z,20.46
2022-10-19T20:51:32.634Z,20.46
2022-10-19T20:54:00.382Z,20.47
2022-10-19T20:56:28.859Z,20.46
2022-10-19T20:58:56.516Z,20.45
2022-10-19T21:01:23.627Z,20.44
2022-10-19T21:03:52.689Z,20.44
2022-10-19T21:06:19.703Z,20.44
2022-10-19T21:08:46.144Z,20.45
2022-10-19T21:11:16.907Z,20.44
2022-10-19T21:13:43.586Z,20.43
2022-10-19T21:16:13.124Z,20.42
2022-10-19T21:18:40.036Z,20.42
2022-10-19T21:21:10.826Z,20.39
2022-10-19T21:23:37.270Z,20.40
2022-10-19T21:26:03.731Z,20.39
2022-10-19T21:28:30.082Z,20.37
2022-10-19T21:30:56.444Z,20.38
2022-10-19T21:33:25.550Z,20.37
2022-10-19T21:35:51.930Z,20.36
2022-10-19T21:38:18.345Z,20.34
2022-10-19T21:40:44.701Z,20.34
2022-10-19T21:43:11.449Z,20.32
2022-10-19T21:45:38.300Z,20.32
2022-10-19T21:48:04.740Z,20.33
2022-10-19T21:50:31.162Z,20.33
2022-10-19T21:52:57.726Z,20.32
2022-10-19T21:55:25.037Z,20.32
2022-10-19T21:57:51.478Z,20.32
2022-10-19T22:00:17.846Z,20.32
2022-10-19T22:02:44.176Z,20.30
2022-10-19T22:05:10.572Z,20.31
2022-10-19T22:07:37.328Z,20.31
2022-10-19T22:10:05.068Z,20.34
2022-10-19T22:12:31.619Z,20.37
2022-10-19T22:14:58.082Z,20.42
2022-10-19T22:17:24.450Z,20.45
2022-10-19T22:19:50.942Z,20.49
2022-10-19T22:22:17.337Z,20.53
2022-10-19T22:24:43.816Z,20.57
2022-10-19T22:27:10.260Z,20.58
2022-10-19T22:29:36.635Z,20.62
2022-10-19T22:32:03.283Z,20.59
2022-10-19T22:34:32.167Z,20.54
2022-10-19T22:36:58.822Z,20.51
2022-10-19T22:39:27.783Z,20.49
2022-10-19T22:41:54.546Z,20.53
2022-10-19T22:44:20.890Z,20.55
2022-10-19T22:46:47.276Z,20.54
2022-10-19T22:49:13.704Z,20.55
2022-10-19T22:51:40.135Z,20.56
2022-10-19T22:54:06.499Z,20.56
2022-10-19T22:56:32.964Z,20.57
2022-10-19T22:59:04.133Z,20.53
2022-10-19T23:01:30.704Z,20.56
2022-10-19T23:03:57.126Z,20.54
2022-10-19T23:06:23.587Z,20.56
2022-10-19T23:08:50.027Z,20.55
2022-10-19T23:11:16.443Z,20.54
2022-10-19T23:13:42.913Z,20.54
2022-10-19T23:16:09.641Z,20.55
2022-10-19T23:18:37.213Z,20.53
2022-10-19T23:21:05.691Z,20.52
2022-10-19T23:23:32.688Z,20.53
2022-10-19T23:25:59.026Z,20.51
2022-10-19T23:28:25.469Z,20.51
2022-10-19T23:30:51.970Z,20.50
2022-10-19T23:33:18.387Z,20.47
2022-10-19T23:35:44.761Z,20.46
2022-10-19T23:38:11.256Z,20.44
2022-10-19T23:40:37.632Z,20.45
2022-10-19T23:43:04.091Z,20.45
2022-10-19T23:45:30.422Z,20.43
2022-10-19T23:47:56.788Z,20.41
2022-10-19T23:50:23.157Z,20.36
2022-10-19T23:52:49.550Z,20.38
2022-10-19T23:55:15.919Z,20.38
2022-10-19T23:57:42.274Z,20.36
